sensor_id;sensor_type;location;lat;lon;timestamp;pressure;altitude;pressure_sealevel;temperature;humidity
36242;BME280;22283;42.748;12.732;2023-01-27T00:01:40;97245.34;;;0.08;100.00
36242;BME280;22283;42.748;12.732;2023-01-27T00:06:40;97243.56;;;0.28;100.00
36242;BME280;22283;42.748;12.732;2023-01-27T00:11:41;97238.56;;;0.61;100.00
36242;BME280;22283;42.748;12.732;2023-01-27T00:17:00;97239.56;;;1.12;100.00
36242;BME280;22283;42.748;12.732;2023-01-27T00:22:00;97228.81;;;1.18;99.37
36242;BME280;22283;42.748;12.732;2023-01-27T00:27:19;97217.56;;;1.52;97.49
36242;BME280;22283;42.748;12.732;2023-01-27T00:32:20;97223.03;;;1.96;93.38
36242;BME280;22283;42.748;12.732;2023-01-27T00:37:39;97216.50;;;2.53;87.42
36242;BME280;22283;42.748;12.732;2023-01-27T00:42:40;97204.88;;;2.74;85.26
36242;BME280;22283;42.748;12.732;2023-01-27T00:47:41;97206.69;;;2.88;82.91
36242;BME280;22283;42.748;12.732;2023-01-27T00:52:43;97217.50;;;2.82;85.15
36242;BME280;22283;42.748;12.732;2023-01-27T00:57:44;97218.00;;;2.88;84.59
36242;BME280;22283;42.748;12.732;2023-01-27T01:02:45;97217.28;;;3.01;83.29
36242;BME280;22283;42.748;12.732;2023-01-27T01:07:45;97205.31;;;2.96;83.53
36242;BME280;22283;42.748;12.732;2023-01-27T01:12:46;97215.97;;;2.93;82.38
36242;BME280;22283;42.748;12.732;2023-01-27T01:17:47;97215.81;;;2.81;83.36
36242;BME280;22283;42.748;12.732;2023-01-27T01:22:48;97222.22;;;2.75;82.92
36242;BME280;22283;42.748;12.732;2023-01-27T01:27:48;97199.47;;;2.77;81.78
36242;BME280;22283;42.748;12.732;2023-01-27T01:32:49;97200.47;;;2.90;79.95
36242;BME280;22283;42.748;12.732;2023-01-27T01:37:51;97196.91;;;2.91;77.57
36242;BME280;22283;42.748;12.732;2023-01-27T01:42:55;97192.69;;;2.89;76.24
36242;BME280;22283;42.748;12.732;2023-01-27T01:48:09;97192.22;;;2.82;75.13
36242;BME280;22283;42.748;12.732;2023-01-27T01:53:12;97187.50;;;2.73;76.46
36242;BME280;22283;42.748;12.732;2023-01-27T01:58:13;97185.00;;;2.56;77.35
36242;BME280;22283;42.748;12.732;2023-01-27T02:03:18;97193.38;;;2.31;78.01
36242;BME280;22283;42.748;12.732;2023-01-27T02:08:26;97189.31;;;2.25;79.28
36242;BME280;22283;42.748;12.732;2023-01-27T02:13:28;97183.00;;;2.13;80.82
36242;BME280;22283;42.748;12.732;2023-01-27T02:18:30;97169.38;;;2.08;81.23
36242;BME280;22283;42.748;12.732;2023-01-27T02:23:55;97173.16;;;2.03;80.33
36242;BME280;22283;42.748;12.732;2023-01-27T02:29:01;97172.75;;;2.10;78.25
36242;BME280;22283;42.748;12.732;2023-01-27T02:34:06;97161.63;;;2.22;77.37
36242;BME280;22283;42.748;12.732;2023-01-27T02:39:13;97164.31;;;2.21;77.46
36242;BME280;22283;42.748;12.732;2023-01-27T02:44:16;97164.06;;;2.10;77.78
36242;BME280;22283;42.748;12.732;2023-01-27T02:49:17;97163.84;;;2.14;77.92
36242;BME280;22283;42.748;12.732;2023-01-27T02:54:18;97164.50;;;2.18;77.82
36242;BME280;22283;42.748;12.732;2023-01-27T02:59:19;97159.44;;;2.15;78.56
36242;BME280;22283;42.748;12.732;2023-01-27T03:04:21;97156.75;;;2.01;79.39
36242;BME280;22283;42.748;12.732;2023-01-27T03:09:21;97140.75;;;2.22;77.81
36242;BME280;22283;42.748;12.732;2023-01-27T03:14:22;97149.94;;;2.30;77.16
36242;BME280;22283;42.748;12.732;2023-01-27T03:19:41;97134.63;;;2.08;78.85
36242;BME280;22283;42.748;12.732;2023-01-27T03:24:45;97148.31;;;1.95;80.83
36242;BME280;22283;42.748;12.732;2023-01-27T03:29:46;97157.09;;;1.61;85.36
36242;BME280;22283;42.748;12.732;2023-01-27T03:34:56;97152.97;;;1.24;89.63
36242;BME280;22283;42.748;12.732;2023-01-27T03:40:05;97140.28;;;1.01;91.04
36242;BME280;22283;42.748;12.732;2023-01-27T03:45:24;97150.53;;;0.86;93.27
36242;BME280;22283;42.748;12.732;2023-01-27T03:50:43;97144.50;;;0.68;95.86
36242;BME280;22283;42.748;12.732;2023-01-27T03:55:44;97150.41;;;0.72;95.51
36242;BME280;22283;42.748;12.732;2023-01-27T04:00:49;97144.72;;;0.64;97.99
36242;BME280;22283;42.748;12.732;2023-01-27T04:05:51;97140.72;;;0.57;99.42
36242;BME280;22283;42.748;12.732;2023-01-27T04:11:10;97133.28;;;0.49;98.99
36242;BME280;22283;42.748;12.732;2023-01-27T04:16:29;97138.63;;;0.46;99.01
36242;BME280;22283;42.748;12.732;2023-01-27T04:21:30;97137.47;;;0.34;99.67
36242;BME280;22283;42.748;12.732;2023-01-27T04:26:30;97149.88;;;0.29;100.00
36242;BME280;22283;42.748;12.732;2023-01-27T04:31:32;97149.25;;;0.24;100.00
36242;BME280;22283;42.748;12.732;2023-01-27T04:36:33;97149.44;;;0.19;100.00
36242;BME280;22283;42.748;12.732;2023-01-27T04:41:34;97146.22;;;-0.05;100.00
36242;BME280;22283;42.748;12.732;2023-01-27T04:46:35;97165.28;;;-0.23;100.00
36242;BME280;22283;42.748;12.732;2023-01-27T04:51:35;97163.38;;;-0.38;100.00
36242;BME280;22283;42.748;12.732;2023-01-27T04:56:41;97155.50;;;-0.37;100.00
36242;BME280;22283;42.748;12.732;2023-01-27T05:01:43;97157.19;;;-0.55;100.00
36242;BME280;22283;42.748;12.732;2023-01-27T05:06:44;97165.44;;;-0.65;100.00
36242;BME280;22283;42.748;12.732;2023-01-27T05:11:44;97172.72;;;-0.73;100.00
36242;BME280;22283;42.748;12.732;2023-01-27T05:16:45;97163.47;;;-0.79;100.00
36242;BME280;22283;42.748;12.732;2023-01-27T05:21:46;97148.84;;;-1.02;100.00
36242;BME280;22283;42.748;12.732;2023-01-27T05:46:27;97170.06;;;-0.92;100.00
36242;BME280;22283;42.748;12.732;2023-01-27T05:51:31;97156.84;;;-0.67;100.00
36242;BME280;22283;42.748;12.732;2023-01-27T05:56:32;97170.03;;;-0.72;100.00
36242;BME280;22283;42.748;12.732;2023-01-27T06:01:33;97171.09;;;-0.96;100.00
36242;BME280;22283;42.748;12.732;2023-01-27T06:06:34;97182.22;;;-1.13;100.00
36242;BME280;22283;42.748;12.732;2023-01-27T06:11:34;97178.78;;;-1.14;100.00
36242;BME280;22283;42.748;12.732;2023-01-27T06:16:35;97184.09;;;-1.17;100.00
36242;BME280;22283;42.748;12.732;2023-01-27T06:21:35;97185.72;;;-1.14;100.00
36242;BME280;22283;42.748;12.732;2023-01-27T06:26:36;97194.22;;;-1.11;100.00
36242;BME280;22283;42.748;12.732;2023-01-27T06:31:36;97199.41;;;-1.11;100.00
36242;BME280;22283;42.748;12.732;2023-01-27T06:36:37;97197.59;;;-1.09;100.00
36242;BME280;22283;42.748;12.732;2023-01-27T06:41:38;97199.63;;;-0.95;100.00
36242;BME280;22283;42.748;12.732;2023-01-27T06:46:38;97207.22;;;-0.90;100.00
36242;BME280;22283;42.748;12.732;2023-01-27T06:51:39;97200.50;;;-0.76;100.00
36242;BME280;22283;42.748;12.732;2023-01-27T06:56:39;97215.00;;;-0.70;100.00
36242;BME280;22283;42.748;12.732;2023-01-27T07:01:40;97221.72;;;-0.45;100.00
36242;BME280;22283;42.748;12.732;2023-01-27T07:06:40;97225.03;;;-0.42;100.00
36242;BME280;22283;42.748;12.732;2023-01-27T07:11:41;97227.31;;;-0.34;100.00
36242;BME280;22283;42.748;12.732;2023-01-27T07:16:42;97223.03;;;-0.16;100.00
36242;BME280;22283;42.748;12.732;2023-01-27T07:21:42;97232.13;;;0.13;100.00
36242;BME280;22283;42.748;12.732;2023-01-27T07:26:43;97235.38;;;0.37;100.00
36242;BME280;22283;42.748;12.732;2023-01-27T07:31:46;97235.97;;;0.61;100.00
36242;BME280;22283;42.748;12.732;2023-01-27T07:36:47;97242.31;;;0.91;100.00
36242;BME280;22283;42.748;12.732;2023-01-27T07:41:48;97235.25;;;1.11;100.00
36242;BME280;22283;42.748;12.732;2023-01-27T07:46:48;97244.38;;;1.37;100.00
36242;BME280;22283;42.748;12.732;2023-01-27T07:51:49;97237.69;;;1.66;100.00
36242;BME280;22283;42.748;12.732;2023-01-27T07:56:50;97233.47;;;1.96;100.00
36242;BME280;22283;42.748;12.732;2023-01-27T08:01:50;97240.19;;;2.18;95.55
36242;BME280;22283;42.748;12.732;2023-01-27T08:06:51;97248.94;;;2.49;94.82
36242;BME280;22283;42.748;12.732;2023-01-27T08:11:52;97235.69;;;2.83;89.46
36242;BME280;22283;42.748;12.732;2023-01-27T08:16:52;97247.78;;;3.16;81.86
36242;BME280;22283;42.748;12.732;2023-01-27T08:21:53;97247.72;;;3.32;80.89
36242;BME280;22283;42.748;12.732;2023-01-27T08:26:53;97253.28;;;3.41;80.06
36242;BME280;22283;42.748;12.732;2023-01-27T08:31:54;97241.00;;;3.58;77.61
36242;BME280;22283;42.748;12.732;2023-01-27T08:36:55;97250.09;;;3.81;77.77
36242;BME280;22283;42.748;12.732;2023-01-27T08:41:55;97247.38;;;4.11;74.87
36242;BME280;22283;42.748;12.732;2023-01-27T08:46:56;97244.56;;;4.28;72.47
36242;BME280;22283;42.748;12.732;2023-01-27T08:51:56;97252.88;;;4.49;72.64
36242;BME280;22283;42.748;12.732;2023-01-27T08:56:57;97255.19;;;4.68;71.12
36242;BME280;22283;42.748;12.732;2023-01-27T09:01:58;97253.63;;;4.78;68.76
36242;BME280;22283;42.748;12.732;2023-01-27T09:06:58;97254.75;;;4.88;67.84
36242;BME280;22283;42.748;12.732;2023-01-27T09:11:59;97247.41;;;4.93;65.69
36242;BME280;22283;42.748;12.732;2023-01-27T09:16:59;97254.53;;;5.18;65.83
36242;BME280;22283;42.748;12.732;2023-01-27T09:22:01;97256.38;;;5.31;64.39
36242;BME280;22283;42.748;12.732;2023-01-27T09:27:01;97257.25;;;5.57;63.46
36242;BME280;22283;42.748;12.732;2023-01-27T09:32:02;97258.09;;;5.70;61.46
36242;BME280;22283;42.748;12.732;2023-01-27T09:37:10;97256.47;;;5.95;59.35
36242;BME280;22283;42.748;12.732;2023-01-27T10:15:03;97266.56;;;6.26;57.02
36242;BME280;22283;42.748;12.732;2023-01-27T10:20:42;97251.72;;;6.25;56.90
36242;BME280;22283;42.748;12.732;2023-01-27T10:31:18;97243.81;;;6.87;56.13
36242;BME280;22283;42.748;12.732;2023-01-27T10:41:55;97232.63;;;7.21;54.50
36242;BME280;22283;42.748;12.732;2023-01-27T10:47:14;97226.66;;;7.65;54.67
36242;BME280;22283;42.748;12.732;2023-01-27T10:52:21;97228.50;;;7.98;52.92
36242;BME280;22283;42.748;12.732;2023-01-27T11:02:39;97227.94;;;7.59;54.06
36242;BME280;22283;42.748;12.732;2023-01-27T11:07:46;97226.59;;;7.43;55.18
36242;BME280;22283;42.748;12.732;2023-01-27T11:12:53;97231.09;;;7.29;55.06
36242;BME280;22283;42.748;12.732;2023-01-27T11:18:03;97211.19;;;7.49;54.04
36242;BME280;22283;42.748;12.732;2023-01-27T11:23:14;97220.50;;;7.88;54.09
36242;BME280;22283;42.748;12.732;2023-01-27T11:33:53;97206.47;;;8.10;53.91
36242;BME280;22283;42.748;12.732;2023-01-27T11:38:55;97207.69;;;7.84;53.65
36242;BME280;22283;42.748;12.732;2023-01-27T11:44:04;97203.00;;;7.76;53.63
36242;BME280;22283;42.748;12.732;2023-01-27T11:49:07;97197.75;;;7.99;54.45
36242;BME280;22283;42.748;12.732;2023-01-27T11:54:17;97194.06;;;7.44;56.41
36242;BME280;22283;42.748;12.732;2023-01-27T11:59:24;97199.44;;;7.42;58.14
36242;BME280;22283;42.748;12.732;2023-01-27T12:09:39;97187.34;;;7.39;56.76
36242;BME280;22283;42.748;12.732;2023-01-27T12:19:59;97185.75;;;7.26;57.88
36242;BME280;22283;42.748;12.732;2023-01-27T12:25:03;97183.97;;;7.26;58.18
36242;BME280;22283;42.748;12.732;2023-01-27T12:30:16;97175.63;;;7.44;59.67
36242;BME280;22283;42.748;12.732;2023-01-27T12:35:24;97164.78;;;7.59;55.30
36242;BME280;22283;42.748;12.732;2023-01-27T12:40:27;97169.47;;;7.78;56.96
36242;BME280;22283;42.748;12.732;2023-01-27T12:45:29;97167.34;;;7.72;57.50
36242;BME280;22283;42.748;12.732;2023-01-27T12:50:32;97158.09;;;7.67;53.95
36242;BME280;22283;42.748;12.732;2023-01-27T12:55:38;97161.34;;;7.70;52.98
36242;BME280;22283;42.748;12.732;2023-01-27T13:00:44;97159.16;;;7.75;53.51
36242;BME280;22283;42.748;12.732;2023-01-27T13:05:45;97154.50;;;7.68;52.08
36242;BME280;22283;42.748;12.732;2023-01-27T13:11:04;97158.56;;;7.72;53.11
36242;BME280;22283;42.748;12.732;2023-01-27T13:16:14;97156.44;;;7.88;52.51
36242;BME280;22283;42.748;12.732;2023-01-27T13:21:18;97158.25;;;7.76;51.85
36242;BME280;22283;42.748;12.732;2023-01-27T13:26:25;97152.56;;;7.58;53.21
36242;BME280;22283;42.748;12.732;2023-01-27T13:31:56;97154.16;;;7.72;53.67
36242;BME280;22283;42.748;12.732;2023-01-27T13:37:06;97137.28;;;7.75;52.18
36242;BME280;22283;42.748;12.732;2023-01-27T13:42:42;97146.50;;;7.80;52.44
36242;BME280;22283;42.748;12.732;2023-01-27T13:52:58;97149.25;;;7.56;52.27
36242;BME280;22283;42.748;12.732;2023-01-27T13:57:59;97154.34;;;7.47;53.24
36242;BME280;22283;42.748;12.732;2023-01-27T14:19:35;97175.66;;;6.84;54.59
36242;BME280;22283;42.748;12.732;2023-01-27T14:41:07;97186.44;;;6.93;54.32
36242;BME280;22283;42.748;12.732;2023-01-27T14:46:16;97193.84;;;6.87;52.41
36242;BME280;22283;42.748;12.732;2023-01-27T15:02:00;97200.97;;;6.37;53.84
36242;BME280;22283;42.748;12.732;2023-01-27T15:27:59;97205.31;;;5.87;55.48
36242;BME280;22283;42.748;12.732;2023-01-27T15:33:01;97223.06;;;5.71;55.73
36242;BME280;22283;42.748;12.732;2023-01-27T15:43:12;97228.47;;;5.42;56.88
36242;BME280;22283;42.748;12.732;2023-01-27T15:48:18;97257.69;;;5.24;57.80
36242;BME280;22283;42.748;12.732;2023-01-27T15:53:30;97248.59;;;5.02;58.77
36242;BME280;22283;42.748;12.732;2023-01-27T16:04:14;97262.63;;;4.74;61.05
36242;BME280;22283;42.748;12.732;2023-01-27T16:09:39;97260.06;;;4.60;61.25
36242;BME280;22283;42.748;12.732;2023-01-27T16:14:42;97267.75;;;4.34;61.28
36242;BME280;22283;42.748;12.732;2023-01-27T16:19:46;97281.78;;;4.19;62.21
36242;BME280;22283;42.748;12.732;2023-01-27T16:25:00;97296.13;;;3.83;68.99
36242;BME280;22283;42.748;12.732;2023-01-27T16:30:34;97304.88;;;3.54;74.48
36242;BME280;22283;42.748;12.732;2023-01-27T16:35:58;97316.75;;;3.29;76.42
36242;BME280;22283;42.748;12.732;2023-01-27T16:41:19;97319.53;;;3.10;78.63
36242;BME280;22283;42.748;12.732;2023-01-27T16:46:27;97323.84;;;2.95;80.80
36242;BME280;22283;42.748;12.732;2023-01-27T16:51:30;97331.53;;;2.99;80.83
36242;BME280;22283;42.748;12.732;2023-01-27T16:56:34;97328.66;;;2.87;82.12
36242;BME280;22283;42.748;12.732;2023-01-27T17:01:44;97342.28;;;2.92;83.46
36242;BME280;22283;42.748;12.732;2023-01-27T17:06:47;97350.50;;;2.86;83.98
36242;BME280;22283;42.748;12.732;2023-01-27T17:11:49;97357.75;;;2.97;85.50
36242;BME280;22283;42.748;12.732;2023-01-27T17:16:50;97363.19;;;2.92;84.25
36242;BME280;22283;42.748;12.732;2023-01-27T17:27:08;97355.88;;;3.15;80.53
36242;BME280;22283;42.748;12.732;2023-01-27T17:37:22;97364.13;;;3.23;77.97
36242;BME280;22283;42.748;12.732;2023-01-27T17:42:25;97380.16;;;3.17;79.48
36242;BME280;22283;42.748;12.732;2023-01-27T17:47:27;97386.56;;;3.27;75.88
36242;BME280;22283;42.748;12.732;2023-01-27T17:52:28;97388.44;;;3.25;77.58
36242;BME280;22283;42.748;12.732;2023-01-27T17:57:30;97396.75;;;3.16;78.13
36242;BME280;22283;42.748;12.732;2023-01-27T18:02:41;97401.72;;;3.36;73.39
36242;BME280;22283;42.748;12.732;2023-01-27T18:07:42;97402.66;;;3.35;72.98
36242;BME280;22283;42.748;12.732;2023-01-27T18:12:46;97407.81;;;3.21;76.02
36242;BME280;22283;42.748;12.732;2023-01-27T18:17:57;97413.69;;;3.09;78.95
36242;BME280;22283;42.748;12.732;2023-01-27T18:22:58;97407.88;;;2.88;80.68
36242;BME280;22283;42.748;12.732;2023-01-27T18:27:59;97432.47;;;2.84;82.20
36242;BME280;22283;42.748;12.732;2023-01-27T18:33:02;97429.44;;;2.76;83.24
36242;BME280;22283;42.748;12.732;2023-01-27T18:38:20;97440.28;;;2.68;83.86
36242;BME280;22283;42.748;12.732;2023-01-27T18:43:21;97438.44;;;2.70;83.26
36242;BME280;22283;42.748;12.732;2023-01-27T18:48:22;97450.88;;;2.65;82.87
36242;BME280;22283;42.748;12.732;2023-01-27T18:53:22;97438.31;;;2.56;83.68
36242;BME280;22283;42.748;12.732;2023-01-27T18:58:23;97444.75;;;2.49;85.78
36242;BME280;22283;42.748;12.732;2023-01-27T19:03:25;97439.78;;;2.44;85.65
36242;BME280;22283;42.748;12.732;2023-01-27T19:08:26;97456.38;;;2.43;86.96
36242;BME280;22283;42.748;12.732;2023-01-27T19:13:27;97451.28;;;2.57;82.20
36242;BME280;22283;42.748;12.732;2023-01-27T19:18:33;97454.22;;;2.51;82.47
36242;BME280;22283;42.748;12.732;2023-01-27T19:23:33;97460.75;;;2.42;84.80
36242;BME280;22283;42.748;12.732;2023-01-27T19:28:36;97462.44;;;2.43;85.01
36242;BME280;22283;42.748;12.732;2023-01-27T19:33:37;97454.31;;;2.50;84.14
36242;BME280;22283;42.748;12.732;2023-01-27T19:38:38;97452.88;;;2.60;85.09
36242;BME280;22283;42.748;12.732;2023-01-27T19:43:38;97465.97;;;2.42;86.39
36242;BME280;22283;42.748;12.732;2023-01-27T19:48:41;97462.91;;;2.34;88.08
36242;BME280;22283;42.748;12.732;2023-01-27T19:53:41;97474.63;;;2.26;89.73
36242;BME280;22283;42.748;12.732;2023-01-27T19:58:47;97478.72;;;2.31;90.94
36242;BME280;22283;42.748;12.732;2023-01-27T20:03:52;97493.47;;;2.50;86.49
36242;BME280;22283;42.748;12.732;2023-01-27T20:08:58;97491.91;;;2.63;84.47
36242;BME280;22283;42.748;12.732;2023-01-27T20:14:01;97488.22;;;2.67;85.73
36242;BME280;22283;42.748;12.732;2023-01-27T20:19:04;97491.19;;;2.77;87.48
36242;BME280;22283;42.748;12.732;2023-01-27T20:24:06;97482.25;;;2.81;85.07
36242;BME280;22283;42.748;12.732;2023-01-27T20:29:06;97481.34;;;3.15;78.85
36242;BME280;22283;42.748;12.732;2023-01-27T20:34:07;97488.69;;;3.56;74.54
36242;BME280;22283;42.748;12.732;2023-01-27T20:39:08;97497.22;;;3.43;76.37
36242;BME280;22283;42.748;12.732;2023-01-27T20:44:10;97505.47;;;3.52;75.05
36242;BME280;22283;42.748;12.732;2023-01-27T20:49:12;97492.25;;;3.55;74.78
36242;BME280;22283;42.748;12.732;2023-01-27T20:54:13;97501.03;;;3.54;74.94
36242;BME280;22283;42.748;12.732;2023-01-27T20:59:13;97498.94;;;3.44;76.54
36242;BME280;22283;42.748;12.732;2023-01-27T21:04:14;97505.16;;;3.42;76.17
36242;BME280;22283;42.748;12.732;2023-01-27T21:09:15;97505.31;;;3.55;73.85
36242;BME280;22283;42.748;12.732;2023-01-27T21:14:15;97499.84;;;3.59;72.81
36242;BME280;22283;42.748;12.732;2023-01-27T21:19:16;97493.06;;;3.71;71.50
36242;BME280;22283;42.748;12.732;2023-01-27T21:24:17;97499.94;;;3.74;71.79
36242;BME280;22283;42.748;12.732;2023-01-27T21:29:17;97491.81;;;3.78;71.11
36242;BME280;22283;42.748;12.732;2023-01-27T21:34:18;97485.66;;;3.79;71.79
36242;BME280;22283;42.748;12.732;2023-01-27T21:39:19;97499.00;;;3.75;70.66
36242;BME280;22283;42.748;12.732;2023-01-27T21:44:25;97506.50;;;3.81;70.15
36242;BME280;22283;42.748;12.732;2023-01-27T21:49:45;97500.09;;;3.70;71.29
36242;BME280;22283;42.748;12.732;2023-01-27T21:55:03;97507.00;;;3.87;69.74
36242;BME280;22283;42.748;12.732;2023-01-27T22:00:06;97521.34;;;4.12;66.81
36242;BME280;22283;42.748;12.732;2023-01-27T22:05:13;97510.66;;;4.15;67.04
36242;BME280;22283;42.748;12.732;2023-01-27T22:10:16;97520.41;;;4.13;66.81
36242;BME280;22283;42.748;12.732;2023-01-27T22:15:18;97525.91;;;3.92;69.97
36242;BME280;22283;42.748;12.732;2023-01-27T22:20:19;97520.00;;;3.73;73.83
36242;BME280;22283;42.748;12.732;2023-01-27T22:25:20;97518.13;;;3.75;70.42
36242;BME280;22283;42.748;12.732;2023-01-27T22:30:20;97519.50;;;3.82;73.45
36242;BME280;22283;42.748;12.732;2023-01-27T22:35:21;97534.25;;;3.67;74.91
36242;BME280;22283;42.748;12.732;2023-01-27T22:40:22;97522.22;;;3.81;69.43
36242;BME280;22283;42.748;12.732;2023-01-27T22:45:22;97529.69;;;3.87;68.35
36242;BME280;22283;42.748;12.732;2023-01-27T22:50:24;97522.19;;;3.97;67.38
36242;BME280;22283;42.748;12.732;2023-01-27T22:55:25;97527.59;;;3.93;68.01
36242;BME280;22283;42.748;12.732;2023-01-27T23:00:25;97525.56;;;3.99;67.76
36242;BME280;22283;42.748;12.732;2023-01-27T23:05:26;97523.50;;;4.04;66.43
36242;BME280;22283;42.748;12.732;2023-01-27T23:10:27;97529.34;;;4.09;65.79
36242;BME280;22283;42.748;12.732;2023-01-27T23:15:28;97526.06;;;4.05;65.25
36242;BME280;22283;42.748;12.732;2023-01-27T23:20:29;97525.56;;;3.99;66.62
36242;BME280;22283;42.748;12.732;2023-01-27T23:25:30;97529.22;;;3.96;66.41
36242;BME280;22283;42.748;12.732;2023-01-27T23:30:30;97528.97;;;3.85;66.81
36242;BME280;22283;42.748;12.732;2023-01-27T23:35:31;97533.34;;;4.00;65.77
36242;BME280;22283;42.748;12.732;2023-01-27T23:40:32;97530.25;;;4.08;64.40
36242;BME280;22283;42.748;12.732;2023-01-27T23:45:33;97525.56;;;3.99;63.60
36242;BME280;22283;42.748;12.732;2023-01-27T23:50:34;97522.06;;;4.14;63.26
36242;BME280;22283;42.748;12.732;2023-01-27T23:55:35;97520.16;;;4.02;63.51
